»·PEaware :: OOFDT KSBD-KEMT

OOFDT :: KSBD-KEMT

FLIGHT INFORMATION

Flight Status: Arrived
Operator: Unknown
More flights by this operator :: More flights under this callsign
Pilot: Filip . (22793)
Aircraft: CESSNA 172 SKYHAWK
(C172)
More flights by this aircraft type
Origin: KSBD San Bernardino Intl
United States
Destination: KEMT El Monte
United States
More flights between these airports :: More routes between these airports
Route: +
File this flight plan on PilotEdge
Remarks: CAT7
Altitude:
(Current/Filed)
0ft
Speed:
(Current/Filed)
0kts
Departed: 10-Feb-19 11:27 AM
Arrived: 10-Feb-19 12:11 PM
Distance/Time
Traveled:
40nm/0:43
Distance/Time
To Go:
Arrived

Flight Plot

Page will automatically refresh every two minutes.


Map Options




Map Legend


Flown Route
Filed Route
Departure Airport
Arrival Airport
Navaid (VOR, NDB)
Fix

Horizontal Profiles

Position Reports

Time Latitude Longitude Heading Altitude Ground
Speed
10-Feb-19 11:23 34.100340 -117.225540 250 1161ft 14kts
10-Feb-19 11:24 34.100073 -117.226096 164 1161ft 6kts
10-Feb-19 11:25 34.099827 -117.225755 253 1161ft 20kts
10-Feb-19 11:26 34.096535 -117.236827 247 1161ft 41kts
10-Feb-19 11:27 34.092575 -117.250494 246 1161ft 24kts
10-Feb-19 11:28 34.091786 -117.250877 152 1161ft 0kts
10-Feb-19 11:29 34.091786 -117.250877 152 1161ft 0kts
10-Feb-19 11:30 34.091786 -117.250877 152 1161ft 0kts
10-Feb-19 11:31 34.091786 -117.250877 152 1161ft 0kts
10-Feb-19 11:32 34.091786 -117.250877 152 1161ft 0kts
10-Feb-19 11:33 34.091786 -117.250877 152 1161ft 0kts
10-Feb-19 11:34 34.091786 -117.250877 152 1161ft 0kts
10-Feb-19 11:35 34.090970 -117.249503 77 1161ft 7kts
10-Feb-19 11:36 34.097131 -117.228427 68 1723ft 80kts
10-Feb-19 11:37 34.092914 -117.207371 179 2309ft 84kts
10-Feb-19 11:38 34.087971 -117.234666 263 2489ft 93kts
10-Feb-19 11:39 34.086244 -117.266793 266 2400ft 99kts
10-Feb-19 11:40 34.086006 -117.300990 271 2203ft 102kts
10-Feb-19 11:41 34.087391 -117.334464 267 2104ft 97kts
10-Feb-19 11:42 34.085235 -117.366650 260 2090ft 94kts
10-Feb-19 11:43 34.081635 -117.398302 269 2055ft 95kts
10-Feb-19 11:44 34.083695 -117.429730 275 2047ft 93kts
10-Feb-19 11:45 34.086175 -117.460823 265 2042ft 91kts
10-Feb-19 11:46 34.083528 -117.491236 262 2035ft 90kts
10-Feb-19 11:47 34.082081 -117.521350 271 2128ft 90kts
10-Feb-19 11:48 34.081221 -117.550650 276 2876ft 84kts
10-Feb-19 11:49 34.083595 -117.578993 258 3689ft 83kts
10-Feb-19 11:50 34.081453 -117.606680 267 4413ft 83kts
10-Feb-19 11:51 34.080959 -117.635333 268 4479ft 88kts
10-Feb-19 11:52 34.081201 -117.665266 266 4506ft 90kts
10-Feb-19 11:53 34.080762 -117.695885 266 4505ft 93kts
10-Feb-19 11:54 34.078955 -117.726085 273 4506ft 93kts
10-Feb-19 11:55 34.079269 -117.754731 274 4251ft 94kts
10-Feb-19 11:57 34.078543 -117.784635 265 3780ft 97kts
10-Feb-19 11:58 34.077528 -117.815024 279 3326ft 99kts
10-Feb-19 11:59 34.081097 -117.844960 269 2903ft 100kts
10-Feb-19 12:00 34.080613 -117.875742 284 2489ft 100kts
10-Feb-19 12:01 34.093347 -117.907223 262 1997ft 100kts
10-Feb-19 12:02 34.088488 -117.940054 266 1583ft 99kts
10-Feb-19 12:03 34.084952 -117.972893 261 1166ft 98kts
10-Feb-19 12:04 34.082763 -118.005586 275 997ft 97kts
10-Feb-19 12:05 34.088502 -118.037626 281 799ft 97kts
10-Feb-19 12:06 34.107603 -118.047466 11 705ft 99kts
10-Feb-19 12:07 34.122472 -118.034901 140 935ft 87kts
10-Feb-19 12:08 34.099237 -118.043537 172 1032ft 82kts
10-Feb-19 12:09 34.091842 -118.026782 44 795ft 68kts
10-Feb-19 12:10 34.089285 -118.033034 209 520ft 69kts
10-Feb-19 12:11 34.081001 -118.037401 124 299ft 0kts
10-Feb-19 12:11 34.081001 -118.037401 124 299ft 0kts
10-Feb-19 12:13 34.081291 -118.036895 22 299ft 9kts
10-Feb-19 12:14 34.082019 -118.035834 24 299ft 0kts
10-Feb-19 12:15 34.082019 -118.035835 24 299ft 0kts

Navigation Log

Ident Type
Flight plan parsing failed, navigation log unavailable